Time;durP1;ratioP1;P1;durP2;ratioP2;P2;SDS_P1;SDS_P2;PMS_P1;PMS_P2;Temp;Humidity;BMP_temperature;BMP_pressure;BME280_temperature;BME280_humidity;BME280_pressure;Samples;Min_cycle;Max_cycle;Signal;HPM_P1;HPM_P2
2023/01/21 00:01:36;;;;;;;63.95;16.08;;;;;;;-16.61;69.43;101004.84;4900236;28;20618;-52
2023/01/21 00:04:08;;;;;;;23.60;9.40;;;;;;;-16.59;68.78;101003.41;4901230;28;20068;-53
2023/01/21 00:06:39;;;;;;;13.15;6.57;;;;;;;-16.40;68.50;101000.25;4889562;28;20053;-55
2023/01/21 00:09:10;;;;;;;12.43;6.40;;;;;;;-16.24;68.22;100998.59;4913022;28;20103;-56
2023/01/21 00:11:40;;;;;;;16.05;6.68;;;;;;;-16.25;67.57;101006.81;4901802;28;20059;-55
2023/01/21 00:14:11;;;;;;;12.68;6.20;;;;;;;-16.09;67.56;101007.63;4902391;28;20041;-55
2023/01/21 00:16:41;;;;;;;11.30;5.65;;;;;;;-15.97;67.18;101004.56;4903140;28;20052;-52
2023/01/21 00:19:16;;;;;;;14.10;6.07;;;;;;;-15.79;66.93;100995.53;4901482;28;20059;-55
2023/01/21 00:21:47;;;;;;;7.97;5.63;;;;;;;-15.60;66.54;101004.06;4902428;28;20077;-56
2023/01/21 00:24:17;;;;;;;11.10;5.32;;;;;;;-15.59;65.71;101004.97;4901370;28;20061;-57
2023/01/21 00:26:48;;;;;;;9.25;5.43;;;;;;;-15.49;65.11;101007.66;4916189;28;20105;-54
2023/01/21 00:29:19;;;;;;;7.22;5.22;;;;;;;-15.49;64.16;101007.66;4905283;28;20054;-55
2023/01/21 00:31:49;;;;;;;10.75;5.40;;;;;;;-15.52;62.82;101008.25;4890503;28;20106;-55
2023/01/21 00:34:21;;;;;;;10.65;5.20;;;;;;;-15.47;62.66;101006.19;4905627;28;20056;-55
2023/01/21 00:36:52;;;;;;;9.13;5.10;;;;;;;-15.46;61.46;101006.31;4901923;28;20064;-56
2023/01/21 00:39:24;;;;;;;7.88;4.70;;;;;;;-15.51;59.28;101020.03;4905871;28;20040;-54
2023/01/21 00:41:55;;;;;;;5.78;4.55;;;;;;;-15.45;59.20;101020.66;4899678;28;20052;-55
2023/01/21 00:44:25;;;;;;;10.10;5.72;;;;;;;-15.33;59.40;101020.94;4899929;28;20057;-54
2023/01/21 00:46:56;;;;;;;5.53;4.60;;;;;;;-15.37;57.18;101023.91;4901998;28;20486;-55
2023/01/21 00:49:28;;;;;;;8.85;5.30;;;;;;;-15.33;57.85;101020.94;4900287;28;20083;-52
2023/01/21 00:51:59;;;;;;;9.13;5.65;;;;;;;-15.32;56.96;101017.72;4891542;28;20041;-55
2023/01/21 00:54:31;;;;;;;9.43;4.97;;;;;;;-15.26;57.12;101017.41;4898291;28;20439;-55
2023/01/21 00:57:01;;;;;;;6.90;5.00;;;;;;;-15.13;57.21;101016.97;4901335;28;21381;-55
2023/01/21 00:59:32;;;;;;;12.93;6.40;;;;;;;-15.12;56.66;101006.22;4902829;28;20625;-56
2023/01/21 01:02:02;;;;;;;7.28;4.70;;;;;;;-15.13;56.34;101014.47;4899286;28;20533;-56
2023/01/21 01:04:35;;;;;;;9.23;5.50;;;;;;;-15.09;56.58;101017.44;4901961;28;20053;-54
2023/01/21 01:07:05;;;;;;;7.35;4.53;;;;;;;-15.06;56.39;101006.81;4901220;28;20052;-56
2023/01/21 01:09:36;;;;;;;5.55;4.53;;;;;;;-15.12;55.34;101003.69;4896717;28;20049;-56
2023/01/21 01:12:07;;;;;;;11.18;5.10;;;;;;;-15.05;55.94;100994.44;4884028;28;20045;-56
2023/01/21 01:14:37;;;;;;;9.55;5.55;;;;;;;-14.95;55.70;100996.19;4880691;28;20061;-55
2023/01/21 01:17:08;;;;;;;9.60;5.85;;;;;;;-14.94;54.69;100987.94;4888906;28;20486;-56
2023/01/21 01:19:40;;;;;;;12.27;5.65;;;;;;;-15.27;54.79;100926.31;4893813;28;20053;-55
2023/01/21 01:22:10;;;;;;;8.32;5.25;;;;;;;-14.87;54.38;100975.25;4886245;28;20045;-54
2023/01/21 01:24:41;;;;;;;9.95;5.13;;;;;;;-14.78;54.41;100976.09;4884537;28;20056;-54
2023/01/21 01:27:12;;;;;;;7.35;4.70;;;;;;;-14.67;54.39;100984.66;4892191;28;20049;-57
2023/01/21 01:29:45;;;;;;;9.27;5.50;;;;;;;-14.59;54.53;100975.34;4883936;28;20053;-54
2023/01/21 01:32:16;;;;;;;8.23;5.18;;;;;;;-14.56;53.79;100974.00;4895527;28;20049;-56
2023/01/21 01:34:48;;;;;;;8.82;4.95;;;;;;;-14.63;53.83;100959.09;4883877;28;20049;-55
2023/01/21 01:37:18;;;;;;;4.38;3.97;;;;;;;-14.50;53.20;100983.72;4875283;28;20045;-55
2023/01/21 01:39:49;;;;;;;7.07;5.00;;;;;;;-14.52;52.76;100970.16;4881561;28;20045;-57
2023/01/21 01:42:22;;;;;;;10.40;5.05;;;;;;;-14.64;52.62;100974.03;4885656;28;20053;-54
2023/01/21 01:44:58;;;;;;;11.75;5.22;;;;;;;-14.54;53.25;100966.63;4885153;28;20107;-58
2023/01/21 01:47:34;;;;;;;10.68;5.28;;;;;;;-14.28;53.49;100965.63;4881690;28;20062;-55
2023/01/21 01:50:18;;;;;;;9.38;5.70;;;;;;;-14.31;52.32;100960.34;4884698;28;20053;-57
2023/01/21 01:52:54;;;;;;;10.25;5.10;;;;;;;-14.16;52.10;100971.78;4886540;28;20049;-59
2023/01/21 01:55:27;;;;;;;13.93;5.10;;;;;;;-14.25;50.90;100960.88;4882178;28;20048;-58
2023/01/21 01:57:58;;;;;;;9.68;4.78;;;;;;;-14.40;50.43;100963.75;4876492;28;20836;-59
2023/01/21 02:00:29;;;;;;;7.40;4.90;;;;;;;-14.31;50.76;100960.34;4883059;28;20053;-59
2023/01/21 02:05:49;;;;;;;5.57;4.35;;;;;;;-14.21;51.00;100937.84;4897149;28;20427;-58
2023/01/21 02:08:21;;;;;;;7.07;4.32;;;;;;;-14.39;49.78;100935.41;4871974;28;20519;-58
2023/01/21 02:10:55;;;;;;;7.25;4.72;;;;;;;-14.22;51.63;100931.06;4891370;28;20107;-59
2023/01/21 02:13:28;;;;;;;8.23;4.90;;;;;;;-14.12;49.77;100933.69;4882267;28;20423;-59
2023/01/21 02:16:13;;;;;;;5.40;3.90;;;;;;;-14.34;48.97;100926.66;4872897;28;20056;-59
2023/01/21 02:18:55;;;;;;;7.30;4.65;;;;;;;-14.29;49.13;100938.78;4874146;28;20064;-59
2023/01/21 02:21:54;;;;;;;8.88;5.18;;;;;;;-14.10;49.66;100927.19;4872295;28;20460;-58
2023/01/21 02:25:13;;;;;;;7.10;4.40;;;;;;;-13.99;49.44;100921.50;4874241;28;20068;-58
2023/01/21 02:28:00;;;;;;;3.95;3.55;;;;;;;-14.09;48.37;100923.91;4809470;28;20062;-58
2023/01/21 02:30:57;;;;;;;12.57;4.80;;;;;;;-14.07;48.89;100929.97;4883227;28;20671;-58
2023/01/21 02:33:43;;;;;;;7.55;4.65;;;;;;;-14.03;47.92;100924.47;4889778;28;20049;-58
2023/01/21 02:36:29;;;;;;;6.50;3.95;;;;;;;-14.03;48.43;100916.91;4878165;28;20206;-58
2023/01/21 02:39:10;;;;;;;10.48;4.55;;;;;;;-13.87;47.87;100925.88;4865356;28;20080;-58
2023/01/21 02:41:53;;;;;;;7.55;4.63;;;;;;;-13.73;48.30;100940.56;4875945;28;20376;-57
2023/01/21 02:44:32;;;;;;;4.15;3.40;;;;;;;-13.69;47.52;100932.56;4876316;28;20569;-57
2023/01/21 02:47:15;;;;;;;5.75;4.30;;;;;;;-13.84;46.96;100916.09;4903223;28;20049;-58
2023/01/21 02:49:53;;;;;;;4.18;3.60;;;;;;;-14.04;46.57;100917.69;4876057;28;20107;-57
2023/01/21 02:52:25;;;;;;;6.40;3.75;;;;;;;-14.16;47.72;100916.56;4875126;28;20124;-58
2023/01/21 02:54:57;;;;;;;6.13;4.60;;;;;;;-14.04;47.74;100927.72;4885594;28;20053;-58
2023/01/21 02:57:38;;;;;;;7.30;4.85;;;;;;;-14.07;45.60;100917.41;4882289;28;20063;-58
2023/01/21 03:00:16;;;;;;;6.28;3.90;;;;;;;-14.06;46.07;100919.16;4876017;28;20063;-58
2023/01/21 03:03:22;;;;;;;8.63;4.57;;;;;;;-14.19;45.92;100918.78;4886328;28;21031;-59
2023/01/21 03:06:29;;;;;;;6.72;4.60;;;;;;;-14.31;45.58;100912.63;4876065;28;20052;-58
2023/01/21 03:09:06;;;;;;;4.63;3.70;;;;;;;-14.29;46.01;100913.66;4875767;28;20520;-58
2023/01/21 03:11:37;;;;;;;8.93;4.63;;;;;;;-14.25;46.10;100908.16;4885256;28;20099;-57
2023/01/21 03:17:10;;;;;;;4.80;3.53;;;;;;;-14.14;46.60;100920.09;4875535;28;20426;-57
2023/01/21 03:19:47;;;;;;;5.50;4.10;;;;;;;-14.17;46.10;100899.72;4875283;28;20480;-58
2023/01/21 03:22:24;;;;;;;4.10;3.40;;;;;;;-14.14;45.63;100922.59;4880949;28;20785;-58
2023/01/21 03:24:59;;;;;;;5.18;3.95;;;;;;;-15.07;46.25;100770.25;4883882;28;20048;-58
2023/01/21 03:27:32;;;;;;;5.55;4.18;;;;;;;-14.19;46.17;100921.31;4875569;28;20477;-58
2023/01/21 03:30:07;;;;;;;7.22;3.97;;;;;;;-14.26;46.55;100911.44;4885456;28;20076;-58
2023/01/21 03:32:39;;;;;;;7.07;4.07;;;;;;;-14.59;46.75;100857.44;4881162;28;20108;-58
2023/01/21 03:35:11;;;;;;;7.32;3.70;;;;;;;-14.37;47.04;100906.31;4882912;28;20140;-58
2023/01/21 03:37:47;;;;;;;7.22;4.50;;;;;;;-14.41;47.06;100894.22;4885186;28;20060;-58
2023/01/21 03:40:24;;;;;;;5.82;4.50;;;;;;;-14.24;47.53;100897.41;4880004;28;20043;-59
2023/01/21 03:42:55;;;;;;;6.70;4.30;;;;;;;-14.24;46.61;100892.38;4882774;28;20553;-58
2023/01/21 03:45:36;;;;;;;6.70;4.05;;;;;;;-14.22;47.16;100895.91;4885097;28;20071;-59
2023/01/21 03:48:14;;;;;;;8.70;4.30;;;;;;;-14.01;47.61;100897.84;4875236;28;20882;-58
2023/01/21 03:50:50;;;;;;;5.95;4.25;;;;;;;-14.05;46.57;100895.84;4875091;28;20053;-58
2023/01/21 03:53:23;;;;;;;6.22;4.20;;;;;;;-14.11;46.48;100895.25;4872996;28;20049;-57
2023/01/21 03:55:53;;;;;;;7.75;3.90;;;;;;;-14.12;46.41;100878.44;4884680;28;20049;-58
2023/01/21 03:58:24;;;;;;;5.93;3.25;;;;;;;-13.98;45.92;100897.25;4884678;28;21230;-58
2023/01/21 04:00:54;;;;;;;6.65;3.95;;;;;;;-14.18;46.65;100892.94;4884938;28;21331;-58
2023/01/21 04:03:25;;;;;;;8.00;3.78;;;;;;;-14.14;46.74;100890.84;4882782;28;20059;-58
2023/01/21 04:05:55;;;;;;;5.90;4.00;;;;;;;-13.92;47.11;100883.63;4884576;28;20073;-58
2023/01/21 04:08:28;;;;;;;5.63;4.13;;;;;;;-13.89;47.12;100888.03;4884901;28;20684;-58
2023/01/21 04:10:58;;;;;;;6.97;4.28;;;;;;;-13.88;48.09;100884.78;4893105;28;20053;-58
2023/01/21 04:13:29;;;;;;;9.57;4.40;;;;;;;-13.91;48.59;100880.34;4892385;28;20058;-58
2023/01/21 04:15:59;;;;;;;11.05;4.75;;;;;;;-13.97;48.36;100872.28;4892498;28;20729;-59
2023/01/21 04:18:31;;;;;;;14.43;5.85;;;;;;;-13.84;48.56;100875.91;4891773;28;20048;-59
2023/01/21 04:21:01;;;;;;;4.53;3.90;;;;;;;-13.91;49.18;100880.34;4892075;28;20052;-59
2023/01/21 04:23:33;;;;;;;8.57;3.97;;;;;;;-14.20;50.01;100850.13;4891680;28;20102;-59
2023/01/21 04:26:04;;;;;;;8.95;4.60;;;;;;;-14.24;50.41;100832.13;4891888;28;20091;-58
2023/01/21 04:28:34;;;;;;;5.32;3.78;;;;;;;-13.99;50.55;100851.16;4891668;28;20097;-58
2023/01/21 04:31:08;;;;;;;4.72;3.45;;;;;;;-13.81;51.46;100876.16;4890662;28;20064;-59
2023/01/21 04:33:39;;;;;;;8.73;4.50;;;;;;;-13.89;52.71;100882.16;4878560;28;20056;-59
2023/01/21 04:36:09;;;;;;;6.05;4.13;;;;;;;-13.98;52.94;100903.16;4891694;28;20061;-57
2023/01/21 04:38:42;;;;;;;10.90;5.10;;;;;;;-13.91;53.02;100885.38;4890940;28;20053;-57
2023/01/21 04:41:12;;;;;;;11.48;5.85;;;;;;;-13.73;53.39;100897.84;4890763;28;20387;-57
2023/01/21 04:43:43;;;;;;;8.57;3.97;;;;;;;-13.83;52.70;100892.72;4891012;28;20736;-59
2023/01/21 04:46:13;;;;;;;5.63;3.78;;;;;;;-13.81;52.99;100886.22;4891125;28;20481;-58
2023/01/21 04:48:44;;;;;;;9.95;4.43;;;;;;;-13.80;52.78;100893.91;4891206;28;20132;-58
2023/01/21 04:51:14;;;;;;;15.23;5.78;;;;;;;-13.97;52.32;100883.97;4891107;28;20049;-57
2023/01/21 04:53:46;;;;;;;9.80;5.75;;;;;;;-14.15;52.17;100889.09;4890635;28;20052;-58
2023/01/21 04:56:17;;;;;;;8.55;5.20;;;;;;;-14.31;52.81;100885.03;4885674;28;20053;-59
2023/01/21 04:58:47;;;;;;;12.15;5.45;;;;;;;-14.39;53.16;100902.78;4897490;28;20050;-58
2023/01/21 05:01:18;;;;;;;9.55;5.60;;;;;;;-14.44;53.29;100895.56;4894623;28;20062;-59
2023/01/21 05:03:48;;;;;;;8.30;5.15;;;;;;;-14.95;52.88;100830.69;4892487;28;20480;-58
2023/01/21 05:06:19;;;;;;;10.93;4.85;;;;;;;-14.50;53.19;100908.44;4890713;28;20065;-58
2023/01/21 05:08:51;;;;;;;8.48;4.95;;;;;;;-14.50;53.06;100908.44;4890806;28;20056;-57
2023/01/21 05:11:22;;;;;;;6.32;3.90;;;;;;;-14.56;53.17;100912.91;4890883;28;20053;-59
2023/01/21 05:13:52;;;;;;;8.00;4.50;;;;;;;-14.65;53.66;100912.03;4890896;28;20057;-57
2023/01/21 05:16:23;;;;;;;6.55;4.28;;;;;;;-15.74;53.71;100754.81;4891010;28;20884;-57
2023/01/21 05:18:53;;;;;;;6.10;4.07;;;;;;;-14.57;53.70;100918.69;4890412;28;20550;-57
2023/01/21 05:21:24;;;;;;;7.47;4.32;;;;;;;-14.60;53.84;100920.88;4890936;28;20508;-58
2023/01/21 05:23:56;;;;;;;8.77;4.60;;;;;;;-14.68;54.27;100925.19;4891362;28;20121;-59
2023/01/21 05:26:26;;;;;;;6.90;4.45;;;;;;;-14.72;56.28;100929.75;4891000;28;20061;-58
2023/01/21 05:28:57;;;;;;;7.35;4.18;;;;;;;-14.75;58.17;100944.53;4888182;28;20422;-59
2023/01/21 05:31:28;;;;;;;8.65;4.78;;;;;;;-15.06;60.47;100896.50;4896783;28;20050;-56
2023/01/21 05:33:58;;;;;;;6.13;4.25;;;;;;;-14.92;60.90;100941.31;4893749;28;20496;-58
2023/01/21 05:36:29;;;;;;;8.82;4.60;;;;;;;-15.15;61.61;100900.63;4891049;28;20130;-58
2023/01/21 05:39:02;;;;;;;18.55;7.18;;;;;;;-14.78;61.59;100938.47;4890183;28;20056;-57
2023/01/21 05:41:32;;;;;;;10.63;5.15;;;;;;;-15.35;61.58;100831.94;4891172;28;20065;-57
2023/01/21 05:44:03;;;;;;;9.60;5.03;;;;;;;-14.64;61.30;100948.94;4889727;28;20098;-58
2023/01/21 05:46:33;;;;;;;7.65;4.25;;;;;;;-14.69;61.42;100945.13;4890098;28;20148;-57
2023/01/21 05:49:05;;;;;;;39.08;11.18;;;;;;;-14.73;61.74;100958.09;4888076;28;20052;-57
2023/01/21 05:51:35;;;;;;;12.32;5.93;;;;;;;-14.89;61.50;100956.66;4890623;28;20049;-58
2023/01/21 05:54:08;;;;;;;5.95;4.28;;;;;;;-14.99;61.42;100969.06;4890031;28;20048;-57
2023/01/21 05:56:38;;;;;;;7.85;4.93;;;;;;;-15.05;61.42;100968.47;4893440;28;20065;-58
2023/01/21 05:59:10;;;;;;;6.85;5.05;;;;;;;-15.08;61.28;100960.66;4893416;28;20053;-58
2023/01/21 06:01:40;;;;;;;9.00;4.63;;;;;;;-15.13;61.10;100969.34;4894488;28;20117;-57
2023/01/21 06:04:11;;;;;;;7.47;4.57;;;;;;;-15.37;61.39;100963.75;4892176;28;20505;-57
2023/01/21 06:06:41;;;;;;;6.65;4.35;;;;;;;-15.45;61.80;100989.66;4893459;28;20053;-57
2023/01/21 06:09:14;;;;;;;10.50;4.75;;;;;;;-15.80;61.55;100914.50;4892344;28;20060;-57
2023/01/21 06:11:44;;;;;;;9.85;4.45;;;;;;;-15.48;61.39;100974.34;4894267;28;20052;-57
2023/01/21 06:14:15;;;;;;;6.10;4.28;;;;;;;-15.50;61.44;100980.81;4894039;28;20048;-58
2023/01/21 06:16:45;;;;;;;6.40;4.25;;;;;;;-15.43;61.36;100973.16;4894352;28;20068;-56
2023/01/21 06:19:16;;;;;;;7.43;4.28;;;;;;;-15.51;61.11;100959.00;4893256;28;20611;-57
2023/01/21 06:21:47;;;;;;;7.40;4.32;;;;;;;-15.53;60.90;100952.97;4894321;28;22263;-57
2023/01/21 06:24:19;;;;;;;7.93;3.83;;;;;;;-15.36;60.60;100979.66;4890040;28;20676;-58
2023/01/21 06:26:49;;;;;;;6.95;4.00;;;;;;;-15.48;60.28;100976.84;4892968;28;20052;-57
2023/01/21 06:29:20;;;;;;;8.45;4.22;;;;;;;-15.54;59.79;100988.78;4894202;28;20110;-57
2023/01/21 06:31:50;;;;;;;6.47;3.88;;;;;;;-15.62;59.98;100994.63;4894532;28;20436;-57
2023/01/21 06:34:21;;;;;;;9.43;4.45;;;;;;;-15.62;60.13;100994.63;4893573;28;20060;-57
2023/01/21 06:36:52;;;;;;;8.30;4.30;;;;;;;-15.62;60.32;100994.63;4893559;28;20103;-57
2023/01/21 06:39:24;;;;;;;8.88;3.95;;;;;;;-15.63;60.29;100998.78;4893137;28;20063;-58
2023/01/21 06:41:54;;;;;;;10.35;4.07;;;;;;;-15.84;60.24;100991.69;4893838;28;20414;-58
2023/01/21 06:44:25;;;;;;;6.97;3.97;;;;;;;-16.02;60.47;100985.72;4892580;28;20693;-57
2023/01/21 06:46:56;;;;;;;6.35;4.30;;;;;;;-16.06;60.53;101008.69;4893082;28;20063;-57
2023/01/21 06:49:30;;;;;;;9.80;4.35;;;;;;;-16.16;60.62;101007.75;4881887;28;20056;-57
2023/01/21 06:52:01;;;;;;;6.07;3.55;;;;;;;-16.24;60.55;101013.59;4893995;28;20100;-58
2023/01/21 06:54:33;;;;;;;6.63;4.45;;;;;;;-16.59;60.39;100973.38;4893458;28;20048;-57
2023/01/21 06:57:03;;;;;;;7.95;4.78;;;;;;;-17.12;60.21;100921.34;4892281;28;20083;-57
2023/01/21 06:59:35;;;;;;;9.77;5.03;;;;;;;-16.66;60.01;101020.13;4893647;28;20049;-57
2023/01/21 07:02:06;;;;;;;7.90;4.80;;;;;;;-16.67;60.18;101016.75;4893220;28;20144;-57
2023/01/21 07:04:36;;;;;;;9.02;4.80;;;;;;;-16.79;59.83;101020.50;4891171;28;20125;-57
2023/01/21 07:07:07;;;;;;;13.25;5.40;;;;;;;-17.02;59.89;101009.03;4889007;28;20054;-57
2023/01/21 07:09:39;;;;;;;7.80;5.07;;;;;;;-17.03;59.92;101027.22;4889914;28;20058;-56
2023/01/21 07:12:10;;;;;;;6.50;4.35;;;;;;;-17.18;60.22;101010.63;4893208;28;20071;-57
2023/01/21 07:14:40;;;;;;;10.48;4.80;;;;;;;-17.28;60.35;101002.91;4892535;28;20111;-57
2023/01/21 07:17:11;;;;;;;13.60;5.30;;;;;;;-17.13;60.63;101029.50;4893626;28;20075;-56
2023/01/21 07:19:41;;;;;;;10.32;4.60;;;;;;;-17.13;60.93;101028.59;4894250;28;20054;-57
2023/01/21 07:22:15;;;;;;;10.63;5.03;;;;;;;-17.31;60.61;100985.09;4893353;28;20048;-56
2023/01/21 07:24:47;;;;;;;10.27;4.85;;;;;;;-17.13;60.24;101039.47;4879243;28;20155;-57
2023/01/21 07:27:17;;;;;;;8.52;4.90;;;;;;;-17.23;60.37;101047.63;4891114;28;20062;-56
2023/01/21 07:29:48;;;;;;;8.13;5.05;;;;;;;-17.21;60.61;101035.31;4899175;28;20058;-57
2023/01/21 07:32:18;;;;;;;9.15;5.32;;;;;;;-17.20;60.71;101042.06;4896194;28;20089;-57
2023/01/21 07:34:49;;;;;;;9.60;5.43;;;;;;;-17.21;60.79;101033.69;4893619;28;20085;-57
2023/01/21 07:37:19;;;;;;;11.35;5.80;;;;;;;-17.20;60.70;101042.94;4878065;28;20057;-56
2023/01/21 07:39:52;;;;;;;12.38;5.28;;;;;;;-17.34;60.24;101037.22;4893622;28;20133;-56
2023/01/21 07:42:23;;;;;;;10.30;5.72;;;;;;;-17.46;60.23;101035.22;4892406;28;20061;-56
2023/01/21 07:44:53;;;;;;;14.48;6.07;;;;;;;-17.54;60.28;101052.59;4891637;28;20048;-56
2023/01/21 07:47:24;;;;;;;19.05;7.93;;;;;;;-17.76;60.21;101051.91;4889241;28;20048;-54
2023/01/21 07:49:54;;;;;;;20.20;9.13;;;;;;;-17.91;60.45;101037.09;4892765;28;20056;-56
2023/01/21 07:52:25;;;;;;;19.52;8.02;;;;;;;-18.09;60.41;101043.47;4892172;28;20130;-55
2023/01/21 07:54:57;;;;;;;14.05;7.40;;;;;;;-18.36;60.30;101048.84;4892201;28;20048;-56
2023/01/21 07:57:28;;;;;;;12.93;7.22;;;;;;;-18.86;60.98;101004.31;4887254;28;20059;-55
2023/01/21 07:59:58;;;;;;;15.98;8.55;;;;;;;-18.59;61.42;101045.41;4892010;28;20050;-56
2023/01/21 08:02:31;;;;;;;23.73;11.27;;;;;;;-18.83;61.66;101023.69;4892328;28;21194;-56
2023/01/21 08:05:02;;;;;;;26.17;10.93;;;;;;;-18.81;61.95;101058.03;4892891;28;20097;-57
2023/01/21 08:07:32;;;;;;;39.25;12.40;;;;;;;-19.03;61.81;101054.75;4892084;28;20084;-57
2023/01/21 08:10:15;;;;;;;90.63;26.83;;;;;;;-19.32;61.57;101056.41;4892257;28;20049;-55
2023/01/21 08:12:46;;;;;;;93.40;24.35;;;;;;;-19.65;61.76;101066.81;4881644;28;20053;-57
2023/01/21 08:15:17;;;;;;;184.52;46.85;;;;;;;-19.94;62.35;101075.03;4890452;28;20601;-55
2023/01/21 08:17:52;;;;;;;153.02;40.58;;;;;;;-20.20;63.20;101067.91;4893787;28;20061;-56
2023/01/21 08:20:23;;;;;;;104.28;28.88;;;;;;;-20.54;63.15;101050.66;4891067;28;20135;-55
2023/01/21 08:22:53;;;;;;;176.88;49.92;;;;;;;-20.62;63.98;101072.13;4892117;28;20053;-55
2023/01/21 08:25:26;;;;;;;248.55;64.55;;;;;;;-20.76;64.10;101072.06;4890948;28;20049;-55
2023/01/21 08:27:56;;;;;;;246.18;67.60;;;;;;;-20.86;64.37;101077.56;4891988;28;20048;-56
2023/01/21 08:30:27;;;;;;;188.70;60.17;;;;;;;-21.03;64.60;101075.53;4892050;28;20043;-55
2023/01/21 08:33:17;;;;;;;77.63;33.75;;;;;;;-21.17;64.67;101082.91;4891609;28;20113;-55
2023/01/21 08:35:53;;;;;;;21.02;11.38;;;;;;;-21.44;65.19;101078.00;4878947;28;20054;-52
2023/01/21 08:38:24;;;;;;;19.45;9.98;;;;;;;-21.75;66.09;101069.31;4892084;28;20491;-53
2023/01/21 08:40:58;;;;;;;9.85;7.10;;;;;;;-21.93;66.82;101079.47;4892448;28;20155;-56
2023/01/21 08:43:28;;;;;;;13.23;7.50;;;;;;;-22.17;67.38;101067.41;4884183;28;20172;-54
2023/01/21 08:46:05;;;;;;;25.85;9.88;;;;;;;-22.13;67.86;101077.00;4891354;28;20052;-55
2023/01/21 08:48:39;;;;;;;19.58;11.45;;;;;;;-22.01;68.32;101083.44;4884490;28;20069;-54
2023/01/21 08:51:09;;;;;;;50.60;15.13;;;;;;;-22.08;67.99;101085.91;4891477;28;20072;-53
2023/01/21 08:53:40;;;;;;;49.67;18.75;;;;;;;-22.35;68.10;101089.22;4891318;28;20080;-54
2023/01/21 08:56:12;;;;;;;32.55;14.30;;;;;;;-22.51;68.43;101096.31;4891438;28;20053;-54
2023/01/21 08:58:43;;;;;;;69.03;18.17;;;;;;;-22.95;69.10;101063.47;4890377;28;20049;-54
2023/01/21 09:01:18;;;;;;;99.60;26.40;;;;;;;-22.61;69.51;101097.44;4891428;28;20056;-54
2023/01/21 09:03:49;;;;;;;131.15;35.78;;;;;;;-22.55;69.72;101104.06;4881365;28;20125;-53
2023/01/21 09:06:19;;;;;;;126.20;30.30;;;;;;;-22.38;69.97;101098.75;4891031;28;20056;-53
2023/01/21 09:08:52;;;;;;;108.30;27.95;;;;;;;-22.26;69.93;101105.25;4891046;28;20060;-56
2023/01/21 09:11:25;;;;;;;59.90;17.92;;;;;;;-22.29;69.59;101092.44;4900495;28;20055;-55
2023/01/21 09:14:02;;;;;;;56.20;16.60;;;;;;;-22.36;69.56;101112.22;4897658;28;20053;-52
2023/01/21 09:16:33;;;;;;;36.90;12.25;;;;;;;-22.28;69.41;101111.59;4898320;28;20067;-54
2023/01/21 09:19:04;;;;;;;15.88;8.07;;;;;;;-22.68;69.38;101043.78;4889276;28;20052;-53
2023/01/21 09:21:36;;;;;;;13.75;7.53;;;;;;;-22.35;68.95;101116.47;4899124;28;20063;-54
2023/01/21 09:24:11;;;;;;;19.55;11.82;;;;;;;-22.46;69.25;101109.25;4900671;28;20151;-55
2023/01/21 09:26:45;;;;;;;17.58;9.95;;;;;;;-22.54;69.59;101109.91;4898678;28;20711;-55
2023/01/21 09:29:21;;;;;;;21.75;8.70;;;;;;;-22.60;69.65;101119.03;4902176;28;20048;-54
2023/01/21 09:31:51;;;;;;;18.80;10.02;;;;;;;-22.72;69.54;101133.22;4891140;28;20048;-54
2023/01/21 09:34:25;;;;;;;17.52;11.18;;;;;;;-22.85;69.86;101120.88;4891678;28;20553;-54
2023/01/21 09:36:56;;;;;;;19.95;11.27;;;;;;;-22.83;70.10;101128.47;4899365;28;20049;-54
2023/01/21 09:39:31;;;;;;;33.38;10.90;;;;;;;-23.05;69.41;101129.84;4900794;28;20138;-53
2023/01/21 09:42:04;;;;;;;18.25;11.85;;;;;;;-23.13;69.76;101122.31;4891238;28;20366;-54
2023/01/21 09:44:42;;;;;;;28.27;15.57;;;;;;;-23.16;69.41;101135.88;4900662;28;20048;-50
2023/01/21 09:47:22;;;;;;;24.35;13.75;;;;;;;-23.39;69.25;101125.50;4891396;28;20554;-55
2023/01/21 09:50:05;;;;;;;15.30;10.35;;;;;;;-23.58;70.04;101133.00;4889363;28;20067;-51
2023/01/21 09:52:40;;;;;;;10.93;8.70;;;;;;;-23.62;69.96;101125.88;4901794;28;20083;-53
2023/01/21 09:55:18;;;;;;;5.63;5.28;;;;;;;-23.68;70.97;101126.63;4888707;28;20052;-53
2023/01/21 09:58:11;;;;;;;7.00;6.15;;;;;;;-24.07;70.94;101092.00;4891732;28;21104;-53
2023/01/21 10:00:50;;;;;;;15.52;13.77;;;;;;;-24.04;71.53;101107.22;4890409;28;20056;-53
2023/01/21 10:03:30;;;;;;;13.68;8.82;;;;;;;-23.93;71.72;101134.91;4891208;28;20136;-53
2023/01/21 10:06:22;;;;;;;7.53;6.97;;;;;;;-23.98;72.08;101145.09;4889967;28;20287;-53
2023/01/21 10:09:10;;;;;;;6.88;6.38;;;;;;;-24.04;72.13;101136.88;4890167;28;20063;-53
2023/01/21 10:11:52;;;;;;;9.93;8.95;;;;;;;-24.06;72.47;101125.00;4889997;28;20060;-54
2023/01/21 10:15:13;;;;;;;12.43;11.13;;;;;;;-24.00;72.89;101129.19;4889246;28;20110;-52
2023/01/21 10:17:55;;;;;;;15.43;8.90;;;;;;;-23.89;73.20;101132.16;4784371;28;20056;-50
2023/01/21 10:20:30;;;;;;;7.13;6.43;;;;;;;-23.98;73.38;101115.47;4883326;28;20478;-51
2023/01/21 10:23:10;;;;;;;9.10;8.32;;;;;;;-23.89;73.32;101122.28;4891167;28;20060;-54
2023/01/21 10:25:42;;;;;;;18.73;10.93;;;;;;;-23.77;73.47;101133.78;4886553;28;20203;-50
2023/01/21 10:28:18;;;;;;;23.42;11.63;;;;;;;-23.83;73.45;101125.53;4898237;28;20056;-52
2023/01/21 10:30:52;;;;;;;17.90;12.07;;;;;;;-24.55;73.31;100983.66;4890070;28;20052;-52
2023/01/21 10:33:27;;;;;;;21.75;17.08;;;;;;;-24.14;73.13;101068.75;4899276;28;20891;-51
2023/01/21 10:36:32;;;;;;;91.78;37.40;;;;;;;-23.85;73.04;101125.38;4893112;28;20062;-52
2023/01/21 10:39:16;;;;;;;9.85;8.98;;;;;;;-24.20;73.13;101083.69;4890254;28;20059;-50
2023/01/21 10:42:01;;;;;;;10.93;8.52;;;;;;;-23.96;73.41;101126.44;4889655;28;20148;-50
2023/01/21 10:44:39;;;;;;;11.05;7.53;;;;;;;-23.86;73.53;101122.69;4888149;28;20543;-51
2023/01/21 10:47:24;;;;;;;8.43;7.63;;;;;;;-23.88;73.18;101129.00;4895171;28;20625;-53
2023/01/21 10:50:05;;;;;;;7.68;7.07;;;;;;;-23.93;73.50;101115.16;4893260;28;20842;-53
2023/01/21 10:52:46;;;;;;;6.65;6.05;;;;;;;-23.83;73.33;101118.13;4891611;28;20059;-53
2023/01/21 10:55:31;;;;;;;8.82;7.75;;;;;;;-23.84;73.35;101106.47;4892380;28;20778;-50
2023/01/21 10:58:10;;;;;;;6.70;6.30;;;;;;;-23.86;73.42;101113.69;4893008;28;20399;-54
2023/01/21 11:00:46;;;;;;;7.05;6.55;;;;;;;-23.92;73.39;101103.00;4893351;28;20492;-54
2023/01/21 11:03:30;;;;;;;9.88;8.25;;;;;;;-23.80;73.62;101114.50;4899273;28;20108;-54
2023/01/21 11:06:05;;;;;;;10.00;7.97;;;;;;;-23.80;73.43;101093.84;4893644;28;20135;-54
2023/01/21 11:08:38;;;;;;;9.48;6.45;;;;;;;-23.37;73.92;101109.28;4904282;28;20783;-53
2023/01/21 11:11:10;;;;;;;13.52;8.60;;;;;;;-23.16;73.51;101107.09;4894134;28;20050;-54
2023/01/21 11:13:42;;;;;;;10.80;7.43;;;;;;;-23.08;72.97;101111.44;4900756;28;20052;-52
2023/01/21 11:16:14;;;;;;;9.95;7.50;;;;;;;-22.91;73.07;101105.22;4903551;28;20684;-54
2023/01/21 11:18:45;;;;;;;8.02;6.22;;;;;;;-22.77;73.13;101095.50;4903118;28;20064;-52
2023/01/21 11:21:21;;;;;;;11.63;7.35;;;;;;;-22.56;73.17;101098.91;4902227;28;20052;-52
2023/01/21 11:23:58;;;;;;;8.60;6.55;;;;;;;-22.54;72.73;101075.22;4886975;28;20099;-51
2023/01/21 11:26:30;;;;;;;9.40;7.15;;;;;;;-22.24;72.25;101103.81;4894234;28;20208;-53
2023/01/21 11:29:10;;;;;;;7.75;6.50;;;;;;;-22.24;71.40;101103.81;4904421;28;20040;-53
2023/01/21 11:31:42;;;;;;;11.13;6.80;;;;;;;-22.26;70.85;101080.47;4891826;28;20060;-51
2023/01/21 11:34:17;;;;;;;12.88;6.18;;;;;;;-22.06;70.32;101096.88;4901982;28;20052;-53
2023/01/21 11:37:04;;;;;;;8.80;5.40;;;;;;;-22.05;69.37;101096.19;4899666;28;20049;-52
2023/01/21 11:39:39;;;;;;;59.97;15.27;;;;;;;-22.14;68.77;101095.03;4892677;28;20126;-53
2023/01/21 11:42:16;;;;;;;64.45;19.05;;;;;;;-22.29;68.07;101099.88;4890797;28;20088;-52
2023/01/21 11:45:00;;;;;;;37.50;14.60;;;;;;;-22.89;67.62;101019.69;4901149;28;20053;-54
2023/01/21 11:47:36;;;;;;;43.10;13.77;;;;;;;-22.56;67.47;101093.94;4892584;28;20068;-54
2023/01/21 11:50:17;;;;;;;38.55;12.63;;;;;;;-22.54;67.73;101090.09;4898984;28;20053;-54